sensor_id;sensor_type;location;lat;lon;timestamp;P1;durP1;ratioP1;P2;durP2;ratioP2
38220;SDS011;24023;51.280;7.148;2023-03-13T00:00:11;12.2;;;2.7;;
38220;SDS011;24023;51.280;7.148;2023-03-13T00:05:06;12.2;;;2.7;;
38220;SDS011;24023;51.280;7.148;2023-03-13T00:10:08;12.2;;;2.7;;
38220;SDS011;24023;51.280;7.148;2023-03-13T00:15:07;13.7;;;2.6;;
38220;SDS011;24023;51.280;7.148;2023-03-13T00:20:09;13.7;;;2.6;;
38220;SDS011;24023;51.280;7.148;2023-03-13T00:25:06;13.7;;;2.6;;
38220;SDS011;24023;51.280;7.148;2023-03-13T00:30:09;13.5;;;2.9;;
38220;SDS011;24023;51.280;7.148;2023-03-13T00:35:06;13.5;;;2.9;;
38220;SDS011;24023;51.280;7.148;2023-03-13T00:40:08;14.2;;;2.6;;
38220;SDS011;24023;51.280;7.148;2023-03-13T00:45:09;10.3;;;2.3;;
38220;SDS011;24023;51.280;7.148;2023-03-13T00:50:07;10.3;;;2.3;;
38220;SDS011;24023;51.280;7.148;2023-03-13T00:55:06;10.3;;;2.3;;
38220;SDS011;24023;51.280;7.148;2023-03-13T01:00:11;10.8;;;2.4;;
38220;SDS011;24023;51.280;7.148;2023-03-13T01:05:06;10.8;;;2.4;;
38220;SDS011;24023;51.280;7.148;2023-03-13T01:10:08;11.6;;;2.3;;
38220;SDS011;24023;51.280;7.148;2023-03-13T01:15:07;10.0;;;2.6;;
38220;SDS011;24023;51.280;7.148;2023-03-13T01:20:09;10.0;;;2.6;;
38220;SDS011;24023;51.280;7.148;2023-03-13T01:25:07;13.5;;;2.5;;
38220;SDS011;24023;51.280;7.148;2023-03-13T01:30:09;13.5;;;2.5;;
38220;SDS011;24023;51.280;7.148;2023-03-13T01:35:07;9.8;;;2.4;;
38220;SDS011;24023;51.280;7.148;2023-03-13T01:40:08;9.8;;;2.4;;
38220;SDS011;24023;51.280;7.148;2023-03-13T01:45:47;12.4;;;2.5;;
38220;SDS011;24023;51.280;7.148;2023-03-13T01:50:08;12.4;;;2.5;;
38220;SDS011;24023;51.280;7.148;2023-03-13T01:55:07;8.7;;;2.3;;
38220;SDS011;24023;51.280;7.148;2023-03-13T02:00:12;8.7;;;2.3;;
38220;SDS011;24023;51.280;7.148;2023-03-13T02:05:06;10.9;;;2.6;;
38220;SDS011;24023;51.280;7.148;2023-03-13T02:10:08;10.9;;;2.6;;
38220;SDS011;24023;51.280;7.148;2023-03-13T02:15:08;10.9;;;2.6;;
38220;SDS011;24023;51.280;7.148;2023-03-13T02:20:09;10.6;;;2.6;;
38220;SDS011;24023;51.280;7.148;2023-03-13T02:25:07;10.6;;;2.6;;
38220;SDS011;24023;51.280;7.148;2023-03-13T02:30:09;9.4;;;2.3;;
38220;SDS011;24023;51.280;7.148;2023-03-13T02:35:08;11.0;;;2.2;;
38220;SDS011;24023;51.280;7.148;2023-03-13T02:40:10;11.0;;;2.2;;
38220;SDS011;24023;51.280;7.148;2023-03-13T02:45:09;11.0;;;2.2;;
38220;SDS011;24023;51.280;7.148;2023-03-13T02:50:09;10.7;;;2.2;;
38220;SDS011;24023;51.280;7.148;2023-03-13T02:55:08;10.7;;;2.2;;
38220;SDS011;24023;51.280;7.148;2023-03-13T03:00:12;10.5;;;2.4;;
38220;SDS011;24023;51.280;7.148;2023-03-13T03:05:07;7.6;;;1.8;;
38220;SDS011;24023;51.280;7.148;2023-03-13T03:10:08;7.6;;;1.8;;
38220;SDS011;24023;51.280;7.148;2023-03-13T03:15:08;5.1;;;1.5;;
38220;SDS011;24023;51.280;7.148;2023-03-13T03:20:11;5.1;;;1.5;;
38220;SDS011;24023;51.280;7.148;2023-03-13T03:25:07;5.1;;;1.5;;
38220;SDS011;24023;51.280;7.148;2023-03-13T03:30:09;6.2;;;1.6;;
38220;SDS011;24023;51.280;7.148;2023-03-13T03:35:06;6.2;;;1.6;;
38220;SDS011;24023;51.280;7.148;2023-03-13T03:40:09;5.6;;;1.3;;
38220;SDS011;24023;51.280;7.148;2023-03-13T03:45:10;5.6;;;1.3;;
38220;SDS011;24023;51.280;7.148;2023-03-13T03:50:10;5.6;;;1.3;;
38220;SDS011;24023;51.280;7.148;2023-03-13T03:55:06;4.9;;;1.1;;
38220;SDS011;24023;51.280;7.148;2023-03-13T04:00:11;4.9;;;1.1;;
38220;SDS011;24023;51.280;7.148;2023-03-13T04:05:07;4.0;;;1.0;;
38220;SDS011;24023;51.280;7.148;2023-03-13T04:10:08;4.0;;;1.0;;
38220;SDS011;24023;51.280;7.148;2023-03-13T04:15:07;4.0;;;1.0;;
38220;SDS011;24023;51.280;7.148;2023-03-13T04:20:08;4.4;;;0.9;;
38220;SDS011;24023;51.280;7.148;2023-03-13T04:25:06;4.4;;;0.9;;
38220;SDS011;24023;51.280;7.148;2023-03-13T04:30:09;3.1;;;0.6;;
38220;SDS011;24023;51.280;7.148;2023-03-13T04:35:06;3.1;;;0.6;;
38220;SDS011;24023;51.280;7.148;2023-03-13T04:40:08;3.2;;;0.5;;
38220;SDS011;24023;51.280;7.148;2023-03-13T04:45:10;3.2;;;0.5;;
38220;SDS011;24023;51.280;7.148;2023-03-13T04:50:08;3.2;;;0.5;;
38220;SDS011;24023;51.280;7.148;2023-03-13T04:55:07;2.3;;;0.8;;
38220;SDS011;24023;51.280;7.148;2023-03-13T05:00:12;2.3;;;0.8;;
38220;SDS011;24023;51.280;7.148;2023-03-13T05:05:06;1.7;;;0.5;;
38220;SDS011;24023;51.280;7.148;2023-03-13T05:10:08;1.7;;;0.5;;
38220;SDS011;24023;51.280;7.148;2023-03-13T05:15:07;1.7;;;0.5;;
38220;SDS011;24023;51.280;7.148;2023-03-13T05:20:10;1.1;;;0.3;;
38220;SDS011;24023;51.280;7.148;2023-03-13T05:25:08;1.1;;;0.3;;
38220;SDS011;24023;51.280;7.148;2023-03-13T05:30:10;1.2;;;0.4;;
38220;SDS011;24023;51.280;7.148;2023-03-13T05:35:06;1.2;;;0.4;;
38220;SDS011;24023;51.280;7.148;2023-03-13T05:40:08;1.2;;;0.4;;
38220;SDS011;24023;51.280;7.148;2023-03-13T05:45:11;1.7;;;0.4;;
38220;SDS011;24023;51.280;7.148;2023-03-13T05:50:09;1.7;;;0.4;;
38220;SDS011;24023;51.280;7.148;2023-03-13T05:55:06;1.3;;;0.5;;
38220;SDS011;24023;51.280;7.148;2023-03-13T06:00:11;1.3;;;0.5;;
38220;SDS011;24023;51.280;7.148;2023-03-13T06:05:07;1.3;;;0.5;;
38220;SDS011;24023;51.280;7.148;2023-03-13T06:10:08;1.9;;;0.6;;
38220;SDS011;24023;51.280;7.148;2023-03-13T06:15:09;1.9;;;0.6;;
38220;SDS011;24023;51.280;7.148;2023-03-13T06:20:08;1.2;;;0.6;;
38220;SDS011;24023;51.280;7.148;2023-03-13T06:25:07;1.2;;;0.6;;
38220;SDS011;24023;51.280;7.148;2023-03-13T06:30:09;1.2;;;0.6;;
38220;SDS011;24023;51.280;7.148;2023-03-13T06:35:06;1.2;;;0.6;;
38220;SDS011;24023;51.280;7.148;2023-03-13T06:40:08;1.2;;;0.6;;
38220;SDS011;24023;51.280;7.148;2023-03-13T06:45:09;1.4;;;0.5;;
38220;SDS011;24023;51.280;7.148;2023-03-13T06:50:08;1.4;;;0.5;;
38220;SDS011;24023;51.280;7.148;2023-03-13T06:55:06;1.2;;;0.5;;
38220;SDS011;24023;51.280;7.148;2023-03-13T07:00:11;1.2;;;0.5;;
38220;SDS011;24023;51.280;7.148;2023-03-13T07:05:07;1.2;;;0.5;;
38220;SDS011;24023;51.280;7.148;2023-03-13T07:10:08;2.2;;;0.7;;
38220;SDS011;24023;51.280;7.148;2023-03-13T07:15:09;2.2;;;0.7;;
38220;SDS011;24023;51.280;7.148;2023-03-13T07:20:10;1.8;;;0.9;;
38220;SDS011;24023;51.280;7.148;2023-03-13T07:25:07;1.8;;;0.9;;
38220;SDS011;24023;51.280;7.148;2023-03-13T07:30:09;1.8;;;0.9;;
38220;SDS011;24023;51.280;7.148;2023-03-13T07:35:06;1.9;;;1.0;;
38220;SDS011;24023;51.280;7.148;2023-03-13T07:40:09;1.9;;;1.0;;
38220;SDS011;24023;51.280;7.148;2023-03-13T07:45:10;2.2;;;0.9;;
38220;SDS011;24023;51.280;7.148;2023-03-13T07:50:08;2.2;;;0.9;;
38220;SDS011;24023;51.280;7.148;2023-03-13T07:55:06;2.2;;;1.1;;
38220;SDS011;24023;51.280;7.148;2023-03-13T08:00:16;2.2;;;1.1;;
38220;SDS011;24023;51.280;7.148;2023-03-13T08:05:06;4.3;;;1.2;;
38220;SDS011;24023;51.280;7.148;2023-03-13T08:10:08;4.3;;;1.2;;
38220;SDS011;24023;51.280;7.148;2023-03-13T08:15:08;4.3;;;1.2;;
38220;SDS011;24023;51.280;7.148;2023-03-13T08:20:09;4.3;;;1.2;;
38220;SDS011;24023;51.280;7.148;2023-03-13T08:25:07;4.3;;;1.4;;
38220;SDS011;24023;51.280;7.148;2023-03-13T08:30:09;5.5;;;1.6;;
38220;SDS011;24023;51.280;7.148;2023-03-13T08:35:06;5.5;;;1.6;;
38220;SDS011;24023;51.280;7.148;2023-03-13T08:40:10;4.7;;;1.5;;
38220;SDS011;24023;51.280;7.148;2023-03-13T08:45:09;4.7;;;1.5;;
38220;SDS011;24023;51.280;7.148;2023-03-13T08:50:08;4.6;;;1.4;;
38220;SDS011;24023;51.280;7.148;2023-03-13T08:55:07;4.6;;;1.4;;
38220;SDS011;24023;51.280;7.148;2023-03-13T09:05:06;4.4;;;1.4;;
38220;SDS011;24023;51.280;7.148;2023-03-13T09:10:08;4.4;;;1.4;;
38220;SDS011;24023;51.280;7.148;2023-03-13T09:15:08;5.2;;;1.7;;
38220;SDS011;24023;51.280;7.148;2023-03-13T09:20:08;5.2;;;1.7;;
38220;SDS011;24023;51.280;7.148;2023-03-13T09:25:06;5.2;;;1.7;;
38220;SDS011;24023;51.280;7.148;2023-03-13T09:30:09;4.4;;;1.7;;
38220;SDS011;24023;51.280;7.148;2023-03-13T09:35:06;4.4;;;1.7;;
38220;SDS011;24023;51.280;7.148;2023-03-13T09:40:09;4.4;;;1.7;;
38220;SDS011;24023;51.280;7.148;2023-03-13T09:45:11;4.4;;;1.7;;
38220;SDS011;24023;51.280;7.148;2023-03-13T09:50:10;3.2;;;1.4;;
38220;SDS011;24023;51.280;7.148;2023-03-13T09:55:10;3.2;;;1.4;;
38220;SDS011;24023;51.280;7.148;2023-03-13T10:00:13;4.2;;;1.4;;
38220;SDS011;24023;51.280;7.148;2023-03-13T10:05:09;4.2;;;1.4;;
38220;SDS011;24023;51.280;7.148;2023-03-13T10:10:11;4.2;;;1.4;;
38220;SDS011;24023;51.280;7.148;2023-03-13T10:15:16;4.5;;;1.5;;
38220;SDS011;24023;51.280;7.148;2023-03-13T10:20:13;4.5;;;1.5;;
38220;SDS011;24023;51.280;7.148;2023-03-13T10:25:07;3.4;;;1.3;;
38220;SDS011;24023;51.280;7.148;2023-03-13T10:30:11;3.4;;;1.3;;
38220;SDS011;24023;51.280;7.148;2023-03-13T10:35:07;3.4;;;1.3;;
38220;SDS011;24023;51.280;7.148;2023-03-13T10:40:10;2.4;;;1.0;;
38220;SDS011;24023;51.280;7.148;2023-03-13T10:45:13;2.4;;;1.0;;
38220;SDS011;24023;51.280;7.148;2023-03-13T10:50:11;2.2;;;0.8;;
38220;SDS011;24023;51.280;7.148;2023-03-13T10:55:09;2.2;;;0.8;;
38220;SDS011;24023;51.280;7.148;2023-03-13T11:00:24;2.2;;;0.8;;
38220;SDS011;24023;51.280;7.148;2023-03-13T11:05:27;2.9;;;1.0;;
38220;SDS011;24023;51.280;7.148;2023-03-13T11:10:15;2.9;;;1.0;;
38220;SDS011;24023;51.280;7.148;2023-03-13T11:15:10;2.9;;;1.0;;
38220;SDS011;24023;51.280;7.148;2023-03-13T11:20:11;1.8;;;0.7;;
38220;SDS011;24023;51.280;7.148;2023-03-13T11:25:12;1.8;;;0.7;;
38220;SDS011;24023;51.280;7.148;2023-03-13T11:30:15;1.3;;;0.7;;
38220;SDS011;24023;51.280;7.148;2023-03-13T11:35:10;1.3;;;0.7;;
38220;SDS011;24023;51.280;7.148;2023-03-13T11:40:10;1.3;;;0.7;;
38220;SDS011;24023;51.280;7.148;2023-03-13T11:45:13;1.4;;;0.6;;
38220;SDS011;24023;51.280;7.148;2023-03-13T11:50:11;1.4;;;0.6;;
38220;SDS011;24023;51.280;7.148;2023-03-13T11:55:15;1.8;;;0.4;;
38220;SDS011;24023;51.280;7.148;2023-03-13T12:00:14;1.8;;;0.4;;
38220;SDS011;24023;51.280;7.148;2023-03-13T12:05:07;1.8;;;0.4;;
38220;SDS011;24023;51.280;7.148;2023-03-13T12:10:09;1.1;;;0.5;;
38220;SDS011;24023;51.280;7.148;2023-03-13T12:15:14;1.1;;;0.5;;
38220;SDS011;24023;51.280;7.148;2023-03-13T12:20:10;2.0;;;0.4;;
38220;SDS011;24023;51.280;7.148;2023-03-13T12:25:09;1.2;;;0.6;;
38220;SDS011;24023;51.280;7.148;2023-03-13T12:30:16;1.2;;;0.6;;
38220;SDS011;24023;51.280;7.148;2023-03-13T12:35:07;1.2;;;0.6;;
38220;SDS011;24023;51.280;7.148;2023-03-13T12:40:11;1.2;;;0.6;;
38220;SDS011;24023;51.280;7.148;2023-03-13T12:45:09;1.2;;;0.3;;
38220;SDS011;24023;51.280;7.148;2023-03-13T12:50:12;1.2;;;0.3;;
38220;SDS011;24023;51.280;7.148;2023-03-13T12:55:12;1.7;;;0.5;;
38220;SDS011;24023;51.280;7.148;2023-03-13T13:00:12;1.7;;;0.5;;
38220;SDS011;24023;51.280;7.148;2023-03-13T13:05:15;3.0;;;0.6;;
38220;SDS011;24023;51.280;7.148;2023-03-13T13:10:16;3.0;;;0.6;;
38220;SDS011;24023;51.280;7.148;2023-03-13T13:15:13;3.0;;;0.6;;
38220;SDS011;24023;51.280;7.148;2023-03-13T13:20:26;1.8;;;0.4;;
38220;SDS011;24023;51.280;7.148;2023-03-13T13:25:25;1.8;;;0.4;;
38220;SDS011;24023;51.280;7.148;2023-03-13T13:30:27;1.0;;;0.5;;
38220;SDS011;24023;51.280;7.148;2023-03-13T13:35:18;5.1;;;0.6;;
38220;SDS011;24023;51.280;7.148;2023-03-13T13:40:16;5.1;;;0.6;;
38220;SDS011;24023;51.280;7.148;2023-03-13T13:45:19;1.9;;;0.6;;
38220;SDS011;24023;51.280;7.148;2023-03-13T13:50:15;1.9;;;0.6;;
38220;SDS011;24023;51.280;7.148;2023-03-13T13:56:26;1.9;;;0.6;;
38220;SDS011;24023;51.280;7.148;2023-03-13T14:00:15;2.9;;;0.6;;
38220;SDS011;24023;51.280;7.148;2023-03-13T14:05:07;0.9;;;0.4;;
38220;SDS011;24023;51.280;7.148;2023-03-13T14:10:13;0.9;;;0.4;;
38220;SDS011;24023;51.280;7.148;2023-03-13T14:15:10;0.9;;;0.4;;
38220;SDS011;24023;51.280;7.148;2023-03-13T14:20:25;1.1;;;0.5;;
38220;SDS011;24023;51.280;7.148;2023-03-13T14:25:06;2.8;;;0.5;;
38220;SDS011;24023;51.280;7.148;2023-03-13T14:30:09;2.8;;;0.5;;
38220;SDS011;24023;51.280;7.148;2023-03-13T14:35:07;5.3;;;0.4;;
38220;SDS011;24023;51.280;7.148;2023-03-13T14:40:14;5.3;;;0.4;;
38220;SDS011;24023;51.280;7.148;2023-03-13T14:45:12;2.5;;;0.4;;
38220;SDS011;24023;51.280;7.148;2023-03-13T14:50:09;2.5;;;0.4;;
38220;SDS011;24023;51.280;7.148;2023-03-13T14:55:24;2.5;;;0.4;;
38220;SDS011;24023;51.280;7.148;2023-03-13T15:00:25;2.9;;;0.4;;
38220;SDS011;24023;51.280;7.148;2023-03-13T15:05:28;2.9;;;0.4;;
38220;SDS011;24023;51.280;7.148;2023-03-13T15:10:24;2.2;;;0.5;;
38220;SDS011;24023;51.280;7.148;2023-03-13T15:15:08;2.2;;;0.5;;
38220;SDS011;24023;51.280;7.148;2023-03-13T15:20:09;2.9;;;0.6;;
38220;SDS011;24023;51.280;7.148;2023-03-13T15:25:09;0.7;;;0.4;;
38220;SDS011;24023;51.280;7.148;2023-03-13T15:30:10;0.7;;;0.4;;
38220;SDS011;24023;51.280;7.148;2023-03-13T15:35:15;0.7;;;0.4;;
38220;SDS011;24023;51.280;7.148;2023-03-13T15:40:12;1.6;;;0.7;;
38220;SDS011;24023;51.280;7.148;2023-03-13T15:45:10;1.6;;;0.7;;
38220;SDS011;24023;51.280;7.148;2023-03-13T15:50:09;0.8;;;0.5;;
38220;SDS011;24023;51.280;7.148;2023-03-13T15:55:08;0.8;;;0.5;;
38220;SDS011;24023;51.280;7.148;2023-03-13T16:00:17;0.8;;;0.5;;
38220;SDS011;24023;51.280;7.148;2023-03-13T16:05:07;3.1;;;0.7;;
38220;SDS011;24023;51.280;7.148;2023-03-13T16:10:13;3.1;;;0.7;;
38220;SDS011;24023;51.280;7.148;2023-03-13T16:15:08;3.1;;;0.7;;
38220;SDS011;24023;51.280;7.148;2023-03-13T16:20:11;1.8;;;0.7;;
38220;SDS011;24023;51.280;7.148;2023-03-13T16:25:07;1.8;;;0.7;;
38220;SDS011;24023;51.280;7.148;2023-03-13T16:30:11;2.3;;;0.5;;
38220;SDS011;24023;51.280;7.148;2023-03-13T16:35:06;2.3;;;0.5;;
38220;SDS011;24023;51.280;7.148;2023-03-13T16:40:12;2.3;;;0.5;;
38220;SDS011;24023;51.280;7.148;2023-03-13T16:45:09;2.6;;;0.5;;
38220;SDS011;24023;51.280;7.148;2023-03-13T16:50:13;2.6;;;0.5;;
38220;SDS011;24023;51.280;7.148;2023-03-13T16:55:06;1.3;;;0.6;;
38220;SDS011;24023;51.280;7.148;2023-03-13T17:00:13;1.3;;;0.6;;
38220;SDS011;24023;51.280;7.148;2023-03-13T17:05:06;3.0;;;0.7;;
38220;SDS011;24023;51.280;7.148;2023-03-13T17:10:14;3.0;;;0.7;;
38220;SDS011;24023;51.280;7.148;2023-03-13T17:15:08;3.0;;;0.7;;
38220;SDS011;24023;51.280;7.148;2023-03-13T17:20:12;2.5;;;0.7;;
38220;SDS011;24023;51.280;7.148;2023-03-13T17:25:07;2.5;;;0.7;;
38220;SDS011;24023;51.280;7.148;2023-03-13T17:30:14;2.2;;;0.7;;
38220;SDS011;24023;51.280;7.148;2023-03-13T17:35:06;2.2;;;0.7;;
38220;SDS011;24023;51.280;7.148;2023-03-13T17:40:12;2.2;;;0.7;;
38220;SDS011;24023;51.280;7.148;2023-03-13T17:45:11;2.1;;;0.8;;
38220;SDS011;24023;51.280;7.148;2023-03-13T17:50:13;2.1;;;0.8;;
38220;SDS011;24023;51.280;7.148;2023-03-13T17:55:06;4.7;;;1.1;;
38220;SDS011;24023;51.280;7.148;2023-03-13T18:00:13;4.7;;;1.1;;
38220;SDS011;24023;51.280;7.148;2023-03-13T18:05:06;3.0;;;0.8;;
38220;SDS011;24023;51.280;7.148;2023-03-13T18:10:11;3.0;;;0.8;;
38220;SDS011;24023;51.280;7.148;2023-03-13T18:15:08;4.6;;;0.9;;
38220;SDS011;24023;51.280;7.148;2023-03-13T18:20:12;4.6;;;0.9;;
38220;SDS011;24023;51.280;7.148;2023-03-13T18:25:07;2.9;;;1.1;;
38220;SDS011;24023;51.280;7.148;2023-03-13T18:30:13;2.9;;;1.1;;
38220;SDS011;24023;51.280;7.148;2023-03-13T18:35:06;2.9;;;1.1;;
38220;SDS011;24023;51.280;7.148;2023-03-13T18:40:13;3.7;;;1.2;;
38220;SDS011;24023;51.280;7.148;2023-03-13T18:45:12;3.7;;;1.2;;
38220;SDS011;24023;51.280;7.148;2023-03-13T18:50:24;4.0;;;0.9;;
38220;SDS011;24023;51.280;7.148;2023-03-13T18:55:06;4.0;;;0.9;;
38220;SDS011;24023;51.280;7.148;2023-03-13T19:00:17;4.0;;;0.9;;
38220;SDS011;24023;51.280;7.148;2023-03-13T19:05:06;4.4;;;1.4;;
38220;SDS011;24023;51.280;7.148;2023-03-13T19:10:14;4.4;;;1.4;;
38220;SDS011;24023;51.280;7.148;2023-03-13T19:15:07;4.9;;;1.6;;
38220;SDS011;24023;51.280;7.148;2023-03-13T19:20:10;4.9;;;1.6;;
38220;SDS011;24023;51.280;7.148;2023-03-13T19:25:06;5.8;;;1.1;;
38220;SDS011;24023;51.280;7.148;2023-03-13T19:30:13;5.8;;;1.1;;
38220;SDS011;24023;51.280;7.148;2023-03-13T19:35:07;3.5;;;1.4;;
38220;SDS011;24023;51.280;7.148;2023-03-13T19:40:12;3.5;;;1.4;;
38220;SDS011;24023;51.280;7.148;2023-03-13T19:45:12;3.5;;;1.4;;
38220;SDS011;24023;51.280;7.148;2023-03-13T19:50:09;4.1;;;1.1;;
38220;SDS011;24023;51.280;7.148;2023-03-13T19:55:07;4.1;;;1.1;;
38220;SDS011;24023;51.280;7.148;2023-03-13T20:00:16;4.3;;;1.1;;
38220;SDS011;24023;51.280;7.148;2023-03-13T20:05:06;4.3;;;1.1;;
38220;SDS011;24023;51.280;7.148;2023-03-13T20:10:08;4.3;;;1.1;;
38220;SDS011;24023;51.280;7.148;2023-03-13T20:15:08;3.4;;;1.1;;
38220;SDS011;24023;51.280;7.148;2023-03-13T20:20:09;3.4;;;1.1;;
38220;SDS011;24023;51.280;7.148;2023-03-13T20:25:07;3.4;;;1.1;;
38220;SDS011;24023;51.280;7.148;2023-03-13T20:30:09;2.9;;;1.2;;
38220;SDS011;24023;51.280;7.148;2023-03-13T20:35:11;5.4;;;1.6;;
38220;SDS011;24023;51.280;7.148;2023-03-13T20:40:08;5.4;;;1.6;;
38220;SDS011;24023;51.280;7.148;2023-03-13T20:45:09;3.7;;;1.2;;
38220;SDS011;24023;51.280;7.148;2023-03-13T20:50:08;3.7;;;1.2;;
38220;SDS011;24023;51.280;7.148;2023-03-13T20:55:07;3.7;;;1.2;;
38220;SDS011;24023;51.280;7.148;2023-03-13T21:00:12;3.6;;;1.4;;
38220;SDS011;24023;51.280;7.148;2023-03-13T21:05:07;3.6;;;1.4;;
38220;SDS011;24023;51.280;7.148;2023-03-13T21:10:08;4.2;;;1.0;;
38220;SDS011;24023;51.280;7.148;2023-03-13T21:15:08;4.2;;;1.0;;
38220;SDS011;24023;51.280;7.148;2023-03-13T21:20:10;4.2;;;1.0;;
38220;SDS011;24023;51.280;7.148;2023-03-13T21:25:06;2.8;;;1.0;;
38220;SDS011;24023;51.280;7.148;2023-03-13T21:30:12;2.8;;;1.0;;
38220;SDS011;24023;51.280;7.148;2023-03-13T21:35:07;2.8;;;1.0;;
38220;SDS011;24023;51.280;7.148;2023-03-13T21:40:08;2.8;;;1.0;;
38220;SDS011;24023;51.280;7.148;2023-03-13T21:45:10;2.0;;;0.7;;
38220;SDS011;24023;51.280;7.148;2023-03-13T21:50:09;2.0;;;0.7;;
38220;SDS011;24023;51.280;7.148;2023-03-13T21:55:07;3.6;;;1.2;;
38220;SDS011;24023;51.280;7.148;2023-03-13T22:00:13;3.6;;;1.2;;
38220;SDS011;24023;51.280;7.148;2023-03-13T22:05:07;3.6;;;1.2;;
38220;SDS011;24023;51.280;7.148;2023-03-13T22:10:08;2.6;;;0.9;;
38220;SDS011;24023;51.280;7.148;2023-03-13T22:15:08;2.6;;;0.9;;
38220;SDS011;24023;51.280;7.148;2023-03-13T22:20:09;3.3;;;1.0;;
38220;SDS011;24023;51.280;7.148;2023-03-13T22:25:06;3.3;;;1.0;;
38220;SDS011;24023;51.280;7.148;2023-03-13T22:30:10;2.5;;;1.0;;
38220;SDS011;24023;51.280;7.148;2023-03-13T22:35:07;2.5;;;1.0;;
38220;SDS011;24023;51.280;7.148;2023-03-13T22:40:09;2.5;;;1.0;;
38220;SDS011;24023;51.280;7.148;2023-03-13T22:45:09;2.7;;;1.0;;
38220;SDS011;24023;51.280;7.148;2023-03-13T22:50:10;2.7;;;1.0;;
38220;SDS011;24023;51.280;7.148;2023-03-13T22:55:06;3.0;;;1.0;;
38220;SDS011;24023;51.280;7.148;2023-03-13T23:00:20;3.0;;;1.0;;
38220;SDS011;24023;51.280;7.148;2023-03-13T23:05:08;3.0;;;1.0;;
38220;SDS011;24023;51.280;7.148;2023-03-13T23:10:08;3.8;;;1.0;;
38220;SDS011;24023;51.280;7.148;2023-03-13T23:15:08;3.8;;;1.0;;
38220;SDS011;24023;51.280;7.148;2023-03-13T23:20:12;2.5;;;1.0;;
38220;SDS011;24023;51.280;7.148;2023-03-13T23:25:06;2.5;;;1.0;;
38220;SDS011;24023;51.280;7.148;2023-03-13T23:30:10;2.5;;;1.0;;
38220;SDS011;24023;51.280;7.148;2023-03-13T23:35:07;4.0;;;1.0;;
38220;SDS011;24023;51.280;7.148;2023-03-13T23:40:08;4.0;;;1.0;;
38220;SDS011;24023;51.280;7.148;2023-03-13T23:45:10;3.6;;;1.0;;
38220;SDS011;24023;51.280;7.148;2023-03-13T23:50:08;3.6;;;1.0;;
38220;SDS011;24023;51.280;7.148;2023-03-13T23:55:07;3.6;;;1.0;;
